createdAt,value
2023-03-31T00:02:22.805Z,64.15
2023-03-31T00:05:11.208Z,64.40
2023-03-31T00:08:04.017Z,64.39
2023-03-31T00:10:49.777Z,64.47
2023-03-31T00:13:36.657Z,64.95
2023-03-31T00:16:22.030Z,65.17
2023-03-31T00:19:09.848Z,65.56
2023-03-31T00:21:55.247Z,65.34
2023-03-31T00:24:40.745Z,65.65
2023-03-31T00:27:28.288Z,65.77
2023-03-31T00:30:14.571Z,65.82
2023-03-31T00:33:00.631Z,66.19
2023-03-31T00:35:46.337Z,66.45
2023-03-31T00:38:33.233Z,66.06
2023-03-31T00:41:19.063Z,66.43
2023-03-31T00:44:14.651Z,66.81
2023-03-31T00:47:21.138Z,66.66
2023-03-31T00:50:16.069Z,67.18
2023-03-31T00:53:08.456Z,66.91
2023-03-31T00:55:59.069Z,67.72
2023-03-31T00:58:45.909Z,67.57
2023-03-31T01:01:32.610Z,68.15
2023-03-31T01:04:22.620Z,68.70
2023-03-31T01:07:30.431Z,68.97
2023-03-31T01:10:15.891Z,69.11
2023-03-31T01:13:01.582Z,69.27
2023-03-31T01:15:49.049Z,69.90
2023-03-31T01:18:35.291Z,70.19
2023-03-31T01:21:26.004Z,70.68
2023-03-31T01:24:35.961Z,70.65
2023-03-31T01:27:46.077Z,70.56
2023-03-31T01:31:05.492Z,70.53
2023-03-31T01:34:16.025Z,71.02
2023-03-31T01:37:21.208Z,70.88
2023-03-31T01:40:37.794Z,70.86
2023-03-31T01:44:04.715Z,70.85
2023-03-31T01:47:08.480Z,70.78
2023-03-31T01:50:08.614Z,70.75
2023-03-31T01:53:15.515Z,70.56
2023-03-31T01:56:18.148Z,71.06
2023-03-31T01:59:14.434Z,71.43
2023-03-31T02:02:07.375Z,70.75
2023-03-31T02:05:00.683Z,71.05
2023-03-31T02:08:06.229Z,71.43
2023-03-31T02:10:54.046Z,71.41
2023-03-31T02:13:46.941Z,71.97
2023-03-31T02:16:58.230Z,71.95
2023-03-31T02:19:47.237Z,72.45
2023-03-31T02:22:37.632Z,72.26
2023-03-31T02:25:32.025Z,72.31
2023-03-31T02:28:25.017Z,72.90
2023-03-31T02:31:27.152Z,72.52
2023-03-31T02:34:12.702Z,73.23
2023-03-31T02:36:58.629Z,73.29
2023-03-31T02:39:47.350Z,73.72
2023-03-31T02:42:33.140Z,73.71
2023-03-31T02:45:40.511Z,73.92
2023-03-31T02:48:29.678Z,74.19
2023-03-31T02:51:27.372Z,74.15
2023-03-31T02:54:28.134Z,74.38
2023-03-31T02:57:53.116Z,75.07
2023-03-31T03:01:16.647Z,75.13
2023-03-31T03:04:35.371Z,76.51
2023-03-31T03:07:42.798Z,76.49
2023-03-31T03:10:44.853Z,76.50
2023-03-31T03:14:01.956Z,76.85
2023-03-31T03:16:53.360Z,76.98
2023-03-31T03:19:41.919Z,77.00
2023-03-31T03:22:28.068Z,76.89
2023-03-31T03:25:17.253Z,77.54
2023-03-31T03:28:02.815Z,77.30
2023-03-31T03:30:48.079Z,77.62
2023-03-31T03:33:33.734Z,77.21
2023-03-31T03:36:19.968Z,77.42
2023-03-31T03:39:07.736Z,77.86
2023-03-31T03:41:53.176Z,77.19
2023-03-31T03:44:38.528Z,77.34
2023-03-31T03:47:24.457Z,77.38
2023-03-31T03:50:12.490Z,77.60
2023-03-31T03:52:58.822Z,77.68
2023-03-31T03:55:45.217Z,77.32
2023-03-31T03:58:30.634Z,77.16
2023-03-31T04:01:16.251Z,77.66
2023-03-31T04:04:01.702Z,77.59
2023-03-31T04:06:47.337Z,77.70
2023-03-31T04:09:32.722Z,77.67
2023-03-31T04:12:18.055Z,78.07
2023-03-31T04:15:04.686Z,77.43
2023-03-31T04:17:51.101Z,77.54
2023-03-31T04:20:37.875Z,77.61
2023-03-31T04:23:23.503Z,78.09
2023-03-31T04:26:10.041Z,77.90
2023-03-31T04:28:58.596Z,78.23
2023-03-31T04:31:44.491Z,78.04
2023-03-31T04:34:36.226Z,77.86
2023-03-31T04:37:21.673Z,77.85
2023-03-31T04:40:08.108Z,77.74
2023-03-31T04:42:53.479Z,78.33
2023-03-31T04:45:39.069Z,77.86
2023-03-31T04:48:24.650Z,77.95
2023-03-31T04:51:11.550Z,78.64
2023-03-31T04:53:57.932Z,78.71
2023-03-31T04:56:43.466Z,78.46
2023-03-31T04:59:29.059Z,78.72
2023-03-31T05:02:16.192Z,79.19
2023-03-31T05:05:01.572Z,79.11
2023-03-31T05:07:46.742Z,79.78
2023-03-31T05:10:33.007Z,79.41
2023-03-31T05:13:18.339Z,79.45
2023-03-31T05:16:14.856Z,80.20
2023-03-31T05:19:00.637Z,80.02
2023-03-31T05:21:46.698Z,80.12
2023-03-31T05:24:31.970Z,79.95
2023-03-31T05:27:18.012Z,80.24
2023-03-31T05:30:04.750Z,80.60
2023-03-31T05:32:50.201Z,80.40
2023-03-31T05:35:35.706Z,81.00
2023-03-31T05:38:22.594Z,80.98
2023-03-31T05:41:09.549Z,80.60
2023-03-31T05:43:55.065Z,80.79
2023-03-31T05:46:41.385Z,81.47
2023-03-31T05:49:27.178Z,81.40
2023-03-31T05:52:12.878Z,81.45
2023-03-31T05:54:59.218Z,81.96
2023-03-31T05:57:44.585Z,82.20
2023-03-31T06:00:30.029Z,81.84
2023-03-31T06:03:15.716Z,81.88
2023-03-31T06:06:02.121Z,82.03
2023-03-31T06:08:48.407Z,81.94
2023-03-31T06:11:34.147Z,82.29
2023-03-31T06:14:19.502Z,82.97
2023-03-31T06:17:04.838Z,82.70
2023-03-31T06:19:50.183Z,82.85
2023-03-31T06:22:35.577Z,83.11
2023-03-31T06:25:21.820Z,82.83
2023-03-31T06:28:07.738Z,83.04
2023-03-31T06:31:04.065Z,83.38
2023-03-31T06:33:50.065Z,83.19
2023-03-31T06:36:36.300Z,83.87
2023-03-31T06:39:21.798Z,83.60
2023-03-31T06:42:07.374Z,83.74
2023-03-31T06:44:58.966Z,83.73
2023-03-31T06:47:44.625Z,83.61
2023-03-31T06:50:29.876Z,83.55
2023-03-31T06:53:15.657Z,84.08
2023-03-31T06:56:01.566Z,83.71
2023-03-31T06:58:48.160Z,83.70
2023-03-31T07:01:37.333Z,83.30
2023-03-31T07:04:23.061Z,83.68
2023-03-31T07:07:08.494Z,83.75
2023-03-31T07:09:56.311Z,83.85
2023-03-31T07:12:42.067Z,83.53
2023-03-31T07:15:28.668Z,83.64
2023-03-31T07:18:15.716Z,83.71
2023-03-31T07:21:01.522Z,83.61
2023-03-31T07:23:47.847Z,84.18
2023-03-31T07:26:33.765Z,83.62
2023-03-31T07:29:20.607Z,83.74
2023-03-31T07:32:06.719Z,84.14
2023-03-31T07:34:52.276Z,84.06
2023-03-31T07:37:39.403Z,83.86
2023-03-31T07:40:27.467Z,83.97
2023-03-31T07:43:13.458Z,83.56
2023-03-31T07:45:59.171Z,83.73
2023-03-31T07:48:46.651Z,84.17
2023-03-31T07:51:32.553Z,83.45
2023-03-31T07:54:18.393Z,83.46
2023-03-31T07:57:06.182Z,83.23
2023-03-31T07:59:52.393Z,82.52
2023-03-31T08:02:38.976Z,82.82
2023-03-31T08:05:24.812Z,82.40
2023-03-31T08:08:10.708Z,82.66
2023-03-31T08:10:56.497Z,82.87
2023-03-31T08:13:42.018Z,83.22
2023-03-31T08:16:27.548Z,83.10
2023-03-31T08:19:12.988Z,83.26
2023-03-31T08:21:58.483Z,83.58
2023-03-31T08:24:43.763Z,83.62
2023-03-31T08:27:32.477Z,84.32
2023-03-31T08:30:19.782Z,84.24
2023-03-31T08:33:05.250Z,83.03
2023-03-31T08:35:51.065Z,82.67
2023-03-31T08:38:39.113Z,81.41
2023-03-31T08:41:29.594Z,80.42
2023-03-31T08:44:22.591Z,80.23
2023-03-31T08:47:16.142Z,79.46
2023-03-31T08:50:07.783Z,79.62
2023-03-31T08:53:03.981Z,79.33
2023-03-31T08:55:52.347Z,79.72
2023-03-31T08:58:47.739Z,78.45
2023-03-31T09:01:56.835Z,78.59
2023-03-31T09:04:58.553Z,78.95
2023-03-31T09:08:22.893Z,77.99
2023-03-31T09:11:13.878Z,78.58
2023-03-31T09:14:10.517Z,79.52
2023-03-31T09:17:25.379Z,78.48
2023-03-31T09:20:21.150Z,78.08
2023-03-31T09:23:21.538Z,78.60
2023-03-31T09:26:23.026Z,78.20
2023-03-31T09:29:47.989Z,75.28
2023-03-31T09:32:33.923Z,75.38
2023-03-31T09:35:22.707Z,75.49
2023-03-31T09:38:12.060Z,75.29
2023-03-31T09:40:59.479Z,74.18
2023-03-31T09:43:47.881Z,73.32
2023-03-31T09:46:35.934Z,72.91
2023-03-31T09:49:26.839Z,73.22
2023-03-31T09:52:25.483Z,72.52
2023-03-31T09:55:28.307Z,73.93
2023-03-31T09:58:22.117Z,73.39
2023-03-31T10:01:12.167Z,70.77
2023-03-31T10:03:58.375Z,72.04
2023-03-31T10:06:44.730Z,70.49
2023-03-31T10:09:33.646Z,70.37
2023-03-31T10:12:37.397Z,70.08
2023-03-31T10:15:27.686Z,69.52
2023-03-31T10:18:18.796Z,68.71
2023-03-31T10:21:06.938Z,69.42
2023-03-31T10:23:54.963Z,68.87
2023-03-31T10:26:41.231Z,68.51
2023-03-31T10:29:33.592Z,68.02
2023-03-31T10:32:30.632Z,68.53
2023-03-31T10:35:22.997Z,68.16
2023-03-31T10:38:17.363Z,68.22
2023-03-31T10:41:04.277Z,69.43
2023-03-31T10:43:51.937Z,69.14
2023-03-31T10:46:52.844Z,67.27
2023-03-31T10:49:40.576Z,66.95
2023-03-31T10:52:29.844Z,66.43
2023-03-31T10:55:26.411Z,65.53
2023-03-31T10:58:23.163Z,66.58
2023-03-31T11:01:29.144Z,66.93
2023-03-31T11:04:43.419Z,66.64
2023-03-31T11:07:46.722Z,66.42
2023-03-31T11:10:58.938Z,64.25
2023-03-31T11:14:02.447Z,65.37
2023-03-31T11:17:01.937Z,64.54
2023-03-31T11:20:12.762Z,63.91
2023-03-31T11:22:58.752Z,64.94
2023-03-31T11:26:10.909Z,64.70
2023-03-31T11:29:08.836Z,63.88
2023-03-31T11:32:32.022Z,65.16
2023-03-31T11:35:43.627Z,63.41
2023-03-31T11:38:51.079Z,63.87
2023-03-31T11:41:54.982Z,63.06
2023-03-31T11:44:53.134Z,62.74
2023-03-31T11:47:44.613Z,63.65
2023-03-31T11:50:38.452Z,63.17
2023-03-31T11:53:33.367Z,63.81
2023-03-31T11:56:20.420Z,62.75
2023-03-31T11:59:09.907Z,62.40
2023-03-31T12:02:00.312Z,63.37
2023-03-31T12:04:53.989Z,63.12
2023-03-31T12:07:50.266Z,62.06
2023-03-31T12:10:39.009Z,62.62
2023-03-31T12:13:52.521Z,64.50
2023-03-31T12:16:43.807Z,63.96
2023-03-31T12:19:58.782Z,62.86
2023-03-31T12:22:47.094Z,60.06
2023-03-31T12:26:11.479Z,61.38
2023-03-31T12:29:03.516Z,60.57
2023-03-31T12:31:53.275Z,60.63
2023-03-31T12:34:49.091Z,60.07
2023-03-31T12:37:59.440Z,59.81
2023-03-31T12:41:22.945Z,58.52
2023-03-31T12:44:14.494Z,58.83
2023-03-31T12:47:21.518Z,59.73
2023-03-31T12:50:34.703Z,56.50
2023-03-31T12:53:26.553Z,58.51
2023-03-31T12:56:12.248Z,58.92
2023-03-31T12:59:18.973Z,58.97
2023-03-31T13:02:26.729Z,58.64
2023-03-31T13:05:38.074Z,57.45
2023-03-31T13:08:48.645Z,58.45
2023-03-31T13:11:36.582Z,57.80
2023-03-31T13:14:24.922Z,57.40
2023-03-31T13:17:28.692Z,57.46
2023-03-31T13:24:00.564Z,57.14
2023-03-31T13:26:49.220Z,57.04
2023-03-31T13:29:43.599Z,57.83
2023-03-31T13:32:29.409Z,58.38
2023-03-31T13:35:24.588Z,57.84
2023-03-31T13:38:51.934Z,57.54
2023-03-31T13:42:14.436Z,57.61
2023-03-31T13:45:18.042Z,57.83
2023-03-31T13:48:26.304Z,57.24
2023-03-31T13:51:28.711Z,57.25
2023-03-31T13:54:48.529Z,57.58
2023-03-31T13:57:58.841Z,58.01
2023-03-31T14:00:48.094Z,58.03
2023-03-31T14:04:16.089Z,57.32
2023-03-31T14:07:09.823Z,57.26
2023-03-31T14:09:58.229Z,57.46
2023-03-31T14:12:44.181Z,57.93
2023-03-31T14:15:30.058Z,57.33
2023-03-31T14:18:24.886Z,57.10
2023-03-31T14:21:29.684Z,57.46
2023-03-31T14:24:26.407Z,58.10
2023-03-31T14:27:18.792Z,56.64
2023-03-31T14:30:10.421Z,57.22
2023-03-31T14:33:12.664Z,56.93
2023-03-31T14:36:21.798Z,56.35
2023-03-31T14:39:11.734Z,56.38
2023-03-31T14:42:02.597Z,56.30
2023-03-31T14:44:48.883Z,56.27
2023-03-31T14:47:34.621Z,56.57
2023-03-31T14:50:20.043Z,56.74
2023-03-31T14:53:15.688Z,56.16
2023-03-31T14:56:07.443Z,56.57
2023-03-31T14:58:54.297Z,56.66
2023-03-31T15:01:40.558Z,56.26
2023-03-31T15:04:39.599Z,55.00
2023-03-31T15:07:28.583Z,55.12
2023-03-31T15:10:20.494Z,55.58
2023-03-31T15:13:11.428Z,55.26
2023-03-31T15:15:56.919Z,55.26
2023-03-31T15:18:44.531Z,55.74
2023-03-31T15:21:34.194Z,55.56
2023-03-31T15:24:20.796Z,55.47
2023-03-31T15:27:14.837Z,55.96
2023-03-31T15:30:02.657Z,55.57
2023-03-31T15:32:48.520Z,55.99
2023-03-31T15:35:36.456Z,55.12
2023-03-31T15:38:25.775Z,55.30
2023-03-31T15:41:13.499Z,55.35
2023-03-31T15:44:28.797Z,55.66
2023-03-31T15:47:25.366Z,55.51
2023-03-31T15:50:15.974Z,55.99
2023-03-31T15:53:03.869Z,55.87
2023-03-31T15:55:55.697Z,56.23
2023-03-31T15:58:58.340Z,56.14
2023-03-31T16:01:46.409Z,56.27
2023-03-31T16:04:33.236Z,56.65
2023-03-31T16:07:26.196Z,56.73
2023-03-31T16:10:23.174Z,57.21
2023-03-31T16:13:12.651Z,56.79
2023-03-31T16:15:59.504Z,56.94
2023-03-31T16:18:50.023Z,57.52
2023-03-31T16:21:43.731Z,57.43
2023-03-31T16:24:36.191Z,57.53
2023-03-31T16:27:22.157Z,57.59
2023-03-31T16:30:14.652Z,57.07
2023-03-31T16:33:03.829Z,57.11
2023-03-31T16:35:56.018Z,57.30
2023-03-31T16:38:41.349Z,57.22
2023-03-31T16:41:31.094Z,57.46
2023-03-31T16:44:17.483Z,57.34
2023-03-31T16:47:03.332Z,57.31
2023-03-31T16:49:49.024Z,56.98
2023-03-31T16:52:36.115Z,57.18
2023-03-31T16:55:22.032Z,57.23
2023-03-31T16:58:08.888Z,57.21
2023-03-31T17:00:56.075Z,57.06
2023-03-31T17:03:43.140Z,57.28
2023-03-31T17:06:28.908Z,57.45
2023-03-31T17:09:15.375Z,56.96
2023-03-31T17:12:01.802Z,56.76
2023-03-31T17:14:47.516Z,56.84
2023-03-31T17:17:33.183Z,56.94
2023-03-31T17:20:19.262Z,56.77
2023-03-31T17:23:07.531Z,57.02
2023-03-31T17:25:54.094Z,57.23
2023-03-31T17:28:41.036Z,57.33
2023-03-31T17:31:27.322Z,57.45
2023-03-31T17:34:13.768Z,58.00
2023-03-31T17:37:00.124Z,57.98
2023-03-31T17:39:46.057Z,58.14
2023-03-31T17:42:31.835Z,57.98
2023-03-31T17:45:17.276Z,58.04
2023-03-31T17:48:03.156Z,58.38
2023-03-31T17:50:48.812Z,58.34
2023-03-31T17:53:35.602Z,58.19
2023-03-31T17:56:20.977Z,58.70
2023-03-31T17:59:06.417Z,58.69
2023-03-31T18:01:52.172Z,58.99
2023-03-31T18:04:37.945Z,59.06
2023-03-31T18:07:23.635Z,59.22
2023-03-31T18:10:10.051Z,59.26
2023-03-31T18:12:55.704Z,59.43
2023-03-31T18:15:48.449Z,59.35
2023-03-31T18:18:34.759Z,59.43
2023-03-31T18:21:20.379Z,59.38
2023-03-31T18:24:06.055Z,59.11
2023-03-31T18:26:51.712Z,59.22
2023-03-31T18:29:37.968Z,59.40
2023-03-31T18:32:23.820Z,59.62
2023-03-31T18:35:09.827Z,60.31
2023-03-31T18:37:55.539Z,60.65
2023-03-31T18:40:48.722Z,60.86
2023-03-31T18:43:34.703Z,60.92
2023-03-31T18:46:20.514Z,61.22
2023-03-31T18:49:06.982Z,61.49
2023-03-31T18:51:53.695Z,61.85
2023-03-31T18:54:39.478Z,62.24
2023-03-31T18:57:25.869Z,62.38
2023-03-31T19:00:13.310Z,62.55
2023-03-31T19:02:59.436Z,62.89
2023-03-31T19:05:45.038Z,62.70
2023-03-31T19:08:31.596Z,62.75
2023-03-31T19:11:17.683Z,62.63
2023-03-31T19:14:03.408Z,62.88
2023-03-31T19:16:49.468Z,62.72
2023-03-31T19:19:35.387Z,62.68
2023-03-31T19:22:21.264Z,62.95
2023-03-31T19:25:07.414Z,62.59
2023-03-31T19:27:53.127Z,62.85
2023-03-31T19:30:38.486Z,63.15
2023-03-31T19:33:25.278Z,63.24
2023-03-31T19:36:11.402Z,63.31
2023-03-31T19:38:57.983Z,62.79
2023-03-31T19:41:43.432Z,63.44
2023-03-31T19:44:29.514Z,63.16
2023-03-31T19:47:14.793Z,63.29
2023-03-31T19:50:00.602Z,63.37
2023-03-31T19:52:49.792Z,63.29
2023-03-31T19:55:43.734Z,63.35
2023-03-31T19:58:31.126Z,63.59
2023-03-31T20:01:23.037Z,63.35
2023-03-31T20:04:08.744Z,63.57
2023-03-31T20:06:54.719Z,63.58
2023-03-31T20:09:40.265Z,63.43
2023-03-31T20:12:26.051Z,63.83
2023-03-31T20:15:11.853Z,64.02
2023-03-31T20:17:57.173Z,63.80
2023-03-31T20:20:43.052Z,63.65
2023-03-31T20:23:28.838Z,63.79
2023-03-31T20:26:17.457Z,63.60
2023-03-31T20:29:04.000Z,63.54
2023-03-31T20:31:50.372Z,63.75
2023-03-31T20:34:36.346Z,63.75
2023-03-31T20:37:22.336Z,63.94
2023-03-31T20:40:08.888Z,64.06
2023-03-31T20:42:55.405Z,64.34
2023-03-31T20:45:41.278Z,64.91
2023-03-31T20:48:26.456Z,64.23
2023-03-31T20:51:14.802Z,64.23
2023-03-31T20:54:01.820Z,64.39
2023-03-31T20:56:47.852Z,64.20
2023-03-31T20:59:33.970Z,64.45
2023-03-31T21:02:20.002Z,65.11
2023-03-31T21:05:06.221Z,64.98
2023-03-31T21:07:51.864Z,64.87
2023-03-31T21:10:43.408Z,65.32
2023-03-31T21:13:31.250Z,65.43
2023-03-31T21:16:17.014Z,65.38
2023-03-31T21:19:02.752Z,65.82
2023-03-31T21:21:48.157Z,66.05
2023-03-31T21:24:34.214Z,66.03
2023-03-31T21:27:19.998Z,66.07
2023-03-31T21:30:05.935Z,66.10
2023-03-31T21:32:51.370Z,65.66
2023-03-31T21:35:36.987Z,65.84
2023-03-31T21:38:23.806Z,66.52
2023-03-31T21:41:12.377Z,66.43
2023-03-31T21:44:02.796Z,66.11
2023-03-31T21:46:48.423Z,66.50
2023-03-31T21:49:33.855Z,66.41
2023-03-31T21:52:19.395Z,66.51
2023-03-31T21:55:04.924Z,66.59
2023-03-31T21:57:51.006Z,66.55
2023-03-31T22:00:37.250Z,66.19
2023-03-31T22:03:27.442Z,66.61
2023-03-31T22:06:13.574Z,66.63
2023-03-31T22:08:59.354Z,67.13
2023-03-31T22:11:44.637Z,67.49
2023-03-31T22:14:30.059Z,67.49
2023-03-31T22:17:15.628Z,67.81
2023-03-31T22:20:01.422Z,68.04
2023-03-31T22:22:47.323Z,67.81
2023-03-31T22:25:33.232Z,67.69
2023-03-31T22:28:18.882Z,67.83
2023-03-31T22:31:04.400Z,67.84
2023-03-31T22:33:49.761Z,68.33
2023-03-31T22:36:35.505Z,68.93
2023-03-31T22:39:21.068Z,69.10
2023-03-31T22:42:06.489Z,69.48
2023-03-31T22:44:51.916Z,69.93
2023-03-31T22:47:37.464Z,70.03
2023-03-31T22:50:23.805Z,70.99
2023-03-31T22:53:09.997Z,71.23
2023-03-31T22:55:56.303Z,71.58
2023-03-31T22:58:42.120Z,71.86
2023-03-31T23:01:28.846Z,72.39
2023-03-31T23:04:14.692Z,72.47
2023-03-31T23:07:01.003Z,72.25
2023-03-31T23:09:46.648Z,72.50
2023-03-31T23:12:32.245Z,72.30
2023-03-31T23:15:18.138Z,72.12
2023-03-31T23:18:03.838Z,72.45
2023-03-31T23:20:49.480Z,72.98
2023-03-31T23:23:34.736Z,72.91
2023-03-31T23:26:22.058Z,73.48
2023-03-31T23:29:07.454Z,72.91
2023-03-31T23:31:52.904Z,73.41
2023-03-31T23:34:41.907Z,73.96
2023-03-31T23:37:27.650Z,74.31
2023-03-31T23:40:13.562Z,74.87
2023-03-31T23:42:59.364Z,74.52
2023-03-31T23:45:44.483Z,74.24
2023-03-31T23:48:29.866Z,74.87
2023-03-31T23:51:15.405Z,74.54
2023-03-31T23:54:01.228Z,74.67
2023-03-31T23:56:46.901Z,74.71
2023-03-31T23:59:32.143Z,74.21
